Time;durP1;ratioP1;P1;durP2;ratioP2;P2;SDS_P1;SDS_P2;PMS_P1;PMS_P2;Temp;Humidity;BMP_temperature;BMP_pressure;BME280_temperature;BME280_humidity;BME280_pressure;Samples;Min_cycle;Max_cycle;Signal;HPM_P1;HPM_P2
2024/01/04 00:00:45;;;;;;;2.97;1.27;;;7.30;1.00;;;;;;5120189;28;20230;-46
2024/01/04 00:03:12;;;;;;;8.20;1.20;;;7.30;1.00;;;;;;5118769;28;20210;-45
2024/01/04 00:05:38;;;;;;;4.83;1.10;;;7.30;1.00;;;;;;5119936;28;20459;-44
2024/01/04 00:08:03;;;;;;;6.67;2.00;;;7.20;1.00;;;;;;5120444;28;20268;-45
2024/01/04 00:10:29;;;;;;;6.33;1.43;;;7.20;1.00;;;;;;5120808;28;20508;-42
2024/01/04 00:12:55;;;;;;;4.30;1.00;;;7.20;1.00;;;;;;5118974;28;20437;-45
2024/01/04 00:15:21;;;;;;;3.30;1.03;;;7.20;1.00;;;;;;5120646;28;20463;-44
2024/01/04 00:17:46;;;;;;;2.90;0.97;;;7.20;8.40;;;;;;5119491;27;20179;-43
2024/01/04 00:20:12;;;;;;;4.13;1.10;;;7.20;16.00;;;;;;5118002;28;20195;-43
2024/01/04 00:22:37;;;;;;;2.73;1.10;;;7.20;21.30;;;;;;5119108;28;20187;-43
2024/01/04 00:25:03;;;;;;;2.33;0.70;;;7.20;51.40;;;;;;5118442;28;20192;-43
2024/01/04 00:27:29;;;;;;;1.80;0.77;;;7.20;99.90;;;;;;5100505;28;20623;-46
2024/01/04 00:29:54;;;;;;;4.63;1.03;;;7.10;99.90;;;;;;5119543;28;20172;-42
2024/01/04 00:32:20;;;;;;;4.73;0.90;;;7.10;99.90;;;;;;5119127;28;20518;-45
2024/01/04 00:34:45;;;;;;;2.87;0.90;;;7.10;99.90;;;;;;5118735;28;20389;-43
2024/01/04 00:37:11;;;;;;;2.43;1.00;;;7.10;99.90;;;;;;5118795;28;20322;-41
2024/01/04 00:39:37;;;;;;;3.47;0.93;;;7.10;99.90;;;;;;5117843;28;20175;-45
2024/01/04 00:42:03;;;;;;;3.23;1.33;;;7.10;99.90;;;;;;5116637;28;20167;-45
2024/01/04 00:44:28;;;;;;;4.87;1.40;;;7.00;99.90;;;;;;5116596;28;20469;-42
2024/01/04 00:46:55;;;;;;;5.60;1.37;;;7.00;99.90;;;;;;5116969;28;20184;-41
2024/01/04 00:49:21;;;;;;;3.80;1.13;;;7.00;99.90;;;;;;5116552;28;20484;-42
2024/01/04 00:51:47;;;;;;;3.83;0.97;;;7.00;99.90;;;;;;5117559;28;20429;-44
2024/01/04 00:54:13;;;;;;;3.10;0.80;;;6.90;99.90;;;;;;5117982;28;20207;-43
2024/01/04 00:56:39;;;;;;;3.73;0.97;;;7.00;99.90;;;;;;5100517;28;20413;-43
2024/01/04 00:59:04;;;;;;;4.63;0.83;;;6.90;99.90;;;;;;5120218;28;20180;-43
2024/01/04 01:01:33;;;;;;;3.13;0.90;;;6.90;99.90;;;;;;5117804;28;20192;-44
2024/01/04 01:04:02;;;;;;;5.30;1.47;;;6.90;99.90;;;;;;5117250;28;20191;-42
2024/01/04 01:06:27;;;;;;;2.70;0.90;;;6.80;99.90;;;;;;5116518;28;20470;-42
2024/01/04 01:08:53;;;;;;;2.60;1.27;;;6.80;1.00;;;;;;5116867;28;20409;-41
2024/01/04 01:11:19;;;;;;;3.90;1.53;;;6.80;1.00;;;;;;5116462;28;20195;-45
2024/01/04 01:13:44;;;;;;;6.20;1.33;;;6.80;1.00;;;;;;5116860;28;20230;-42
2024/01/04 01:16:10;;;;;;;2.40;1.20;;;6.70;1.00;;;;;;5114782;28;20175;-43
2024/01/04 01:18:37;;;;;;;2.53;0.90;;;6.70;1.00;;;;;;5119392;28;20168;-46
2024/01/04 01:21:04;;;;;;;4.70;1.07;;;6.70;1.00;;;;;;5118863;28;20409;-44
2024/01/04 01:23:30;;;;;;;4.10;1.10;;;6.70;1.00;;;;;;5118098;28;20421;-41
2024/01/04 01:25:55;;;;;;;2.30;0.90;;;6.70;1.00;;;;;;5119083;28;20465;-41
2024/01/04 01:28:21;;;;;;;2.40;0.97;;;6.80;1.00;;;;;;5119911;28;20179;-44
2024/01/04 01:30:46;;;;;;;2.27;0.70;;;6.70;1.00;;;;;;5118309;28;20176;-42
2024/01/04 01:33:12;;;;;;;3.53;1.23;;;6.80;1.00;;;;;;5117134;28;20270;-41
2024/01/04 01:35:40;;;;;;;6.87;1.30;;;6.80;1.00;;;;;;5100892;28;20239;-42
2024/01/04 01:38:06;;;;;;;4.40;1.30;;;6.70;1.00;;;;;;5118467;28;20429;-42
2024/01/04 01:40:31;;;;;;;2.50;0.70;;;6.70;1.00;;;;;;5116437;28;20475;-40
2024/01/04 01:42:59;;;;;;;1.70;0.90;;;6.70;1.00;;;;;;5116467;28;20184;-42
2024/01/04 01:45:25;;;;;;;1.93;1.10;;;6.80;1.00;;;;;;5116664;28;20506;-44
2024/01/04 01:47:50;;;;;;;1.27;0.83;;;6.70;1.00;;;;;;5115965;28;20535;-42
2024/01/04 01:50:18;;;;;;;4.70;0.90;;;6.70;1.00;;;;;;5115747;28;20722;-41
2024/01/04 01:52:44;;;;;;;1.53;0.87;;;6.70;1.00;;;;;;5098392;28;20536;-40
2024/01/04 01:55:10;;;;;;;2.10;0.87;;;6.60;1.00;;;;;;5115996;28;20529;-42
2024/01/04 01:57:36;;;;;;;2.20;0.87;;;6.50;1.00;;;;;;5099811;28;20255;-43
2024/01/04 02:00:02;;;;;;;3.37;1.00;;;6.50;1.00;;;;;;5116109;28;20952;-41
2024/01/04 02:02:28;;;;;;;3.60;0.80;;;6.50;1.00;;;;;;5117953;28;20207;-41
2024/01/04 02:04:53;;;;;;;4.20;0.83;;;6.50;1.00;;;;;;5117231;28;20425;-41
2024/01/04 02:07:19;;;;;;;1.97;0.80;;;6.50;1.00;;;;;;5118294;28;20180;-41
2024/01/04 02:09:45;;;;;;;3.37;1.00;;;6.40;1.00;;;;;;5118757;28;20171;-42
2024/01/04 02:12:13;;;;;;;1.80;0.40;;;6.40;1.00;;;;;;5117937;28;20275;-42
2024/01/04 02:14:39;;;;;;;2.10;0.60;;;6.30;1.00;;;;;;5118368;28;20862;-41
2024/01/04 02:17:04;;;;;;;0.90;0.37;;;6.30;1.00;;;;;;5118999;28;20481;-43
2024/01/04 02:19:30;;;;;;;2.03;0.40;;;6.20;99.90;;;;;;5118876;28;20429;-42
2024/01/04 02:21:56;;;;;;;1.60;0.30;;;6.20;1.00;;;;;;5117607;28;20190;-42
2024/01/04 02:24:23;;;;;;;0.90;0.60;;;6.20;1.00;;;;;;5117642;28;20231;-41
2024/01/04 02:26:48;;;;;;;1.00;0.47;;;6.10;1.00;;;;;;5116012;28;20196;-42
2024/01/04 02:29:14;;;;;;;2.40;0.73;;;6.10;1.00;;;;;;5116786;28;20449;-41
2024/01/04 02:31:39;;;;;;;1.40;0.47;;;6.10;1.00;;;;;;5116382;28;20257;-42
2024/01/04 02:34:05;;;;;;;2.20;0.60;;;6.10;1.00;;;;;;5118044;28;20203;-41
2024/01/04 02:36:31;;;;;;;1.33;0.60;;;6.20;1.00;;;;;;5118085;28;20489;-42
2024/01/04 02:38:58;;;;;;;2.90;0.63;;;6.70;1.00;;;;;;5116676;28;20304;-42
2024/01/04 02:41:24;;;;;;;0.93;0.40;;;6.90;1.00;;;;;;5114836;28;20471;-41
2024/01/04 02:43:50;;;;;;;1.83;0.47;;;6.70;1.00;;;;;;5116152;28;20520;-44
2024/01/04 02:46:15;;;;;;;1.20;0.50;;;6.50;1.00;;;;;;5115201;28;20516;-41
2024/01/04 02:48:41;;;;;;;1.40;0.60;;;6.30;1.00;;;;;;5115266;28;20274;-40
2024/01/04 02:51:07;;;;;;;2.27;0.50;;;6.30;1.00;;;;;;5115482;28;20183;-40
2024/01/04 02:53:32;;;;;;;1.93;0.60;;;6.20;1.00;;;;;;5115605;28;20183;-44
2024/01/04 02:55:58;;;;;;;1.10;0.40;;;6.10;1.00;;;;;;5116709;28;20650;-43
2024/01/04 02:58:23;;;;;;;1.30;0.40;;;6.10;1.00;;;;;;5117733;28;20248;-42
2024/01/04 03:00:49;;;;;;;4.63;1.17;;;6.10;1.00;;;;;;5116771;28;20318;-45
2024/01/04 03:03:14;;;;;;;1.57;0.40;;;6.00;1.00;;;;;;5116267;28;20176;-42
2024/01/04 03:05:40;;;;;;;1.43;0.40;;;6.00;1.00;;;;;;5117209;28;20195;-41
2024/01/04 03:08:06;;;;;;;1.57;0.30;;;5.90;99.90;;;;;;5116855;28;20195;-43
2024/01/04 03:10:31;;;;;;;1.57;0.33;;;5.90;1.00;;;;;;5117544;28;20531;-43
2024/01/04 03:12:57;;;;;;;3.73;0.43;;;5.90;1.00;;;;;;5117274;28;20548;-41
2024/01/04 03:15:22;;;;;;;1.03;0.50;;;5.90;1.00;;;;;;5116674;28;20215;-42
2024/01/04 03:17:49;;;;;;;2.53;0.50;;;5.90;1.00;;;;;;5117520;28;20168;-41
2024/01/04 03:20:14;;;;;;;1.27;0.40;;;5.90;1.00;;;;;;5116916;28;20199;-42
2024/01/04 03:22:40;;;;;;;1.87;0.47;;;5.90;1.00;;;;;;5116294;28;20472;-41
2024/01/04 03:25:07;;;;;;;1.03;0.40;;;5.90;1.00;;;;;;5117548;28;20176;-42
2024/01/04 03:27:33;;;;;;;2.13;0.60;;;5.90;1.00;;;;;;5117002;28;20628;-41
2024/01/04 03:29:59;;;;;;;0.83;0.40;;;5.90;1.00;;;;;;5114574;28;20520;-42
2024/01/04 03:32:24;;;;;;;0.80;0.30;;;5.90;1.00;;;;;;5115392;28;20240;-43
2024/01/04 03:34:50;;;;;;;1.10;0.40;;;6.00;1.00;;;;;;5115891;28;20207;-44
2024/01/04 03:37:16;;;;;;;1.47;0.60;;;6.00;1.00;;;;;;5113694;28;20188;-41
2024/01/04 03:39:41;;;;;;;0.60;0.30;;;5.90;1.00;;;;;;5115838;28;20443;-41
2024/01/04 03:42:07;;;;;;;1.57;1.27;;;5.90;1.00;;;;;;5115920;28;20164;-41
2024/01/04 03:44:33;;;;;;;1.33;0.30;;;5.90;1.00;;;;;;5117100;28;20182;-42
2024/01/04 03:46:58;;;;;;;0.97;0.40;;;5.90;1.00;;;;;;5116246;28;20431;-43
2024/01/04 03:49:24;;;;;;;2.53;0.40;;;5.90;1.00;;;;;;5116716;28;20232;-43
2024/01/04 03:51:50;;;;;;;1.47;0.43;;;5.90;1.00;;;;;;5116912;28;20271;-42
2024/01/04 03:54:15;;;;;;;3.30;0.80;;;5.90;1.00;;;;;;5116123;28;20195;-42
2024/01/04 03:56:41;;;;;;;1.50;0.70;;;6.00;1.00;;;;;;5116991;28;20436;-40
2024/01/04 03:59:06;;;;;;;1.43;0.47;;;6.00;1.00;;;;;;5115877;28;20450;-41
2024/01/04 04:01:32;;;;;;;4.53;0.80;;;6.00;1.00;;;;;;5116161;28;20184;-44
2024/01/04 04:03:57;;;;;;;3.67;0.60;;;6.10;1.00;;;;;;5116210;28;20179;-42
2024/01/04 04:06:23;;;;;;;1.80;1.00;;;6.20;1.00;;;;;;5115830;28;20176;-45
2024/01/04 04:08:48;;;;;;;1.30;0.70;;;6.30;1.00;;;;;;5115435;28;20457;-43
2024/01/04 04:11:17;;;;;;;1.40;0.60;;;6.30;1.00;;;;;;5115053;28;20179;-44
2024/01/04 04:13:43;;;;;;;8.37;1.23;;;6.40;1.00;;;;;;5115927;28;20216;-41
2024/01/04 04:16:09;;;;;;;4.70;2.13;;;6.40;1.00;;;;;;5116981;28;20425;-42
2024/01/04 04:18:34;;;;;;;4.07;0.90;;;6.50;1.00;;;;;;5115936;28;20514;-44
2024/01/04 04:21:00;;;;;;;6.03;1.03;;;6.50;1.00;;;;;;5115968;28;20499;-44
2024/01/04 04:23:25;;;;;;;1.97;0.90;;;6.50;1.00;;;;;;5117147;28;20183;-41
2024/01/04 04:25:51;;;;;;;2.77;1.17;;;6.50;1.00;;;;;;5117043;28;20604;-43
2024/01/04 04:28:16;;;;;;;3.07;1.00;;;6.50;1.00;;;;;;5117138;28;20242;-41
2024/01/04 04:30:42;;;;;;;4.63;0.70;;;6.50;1.00;;;;;;5117177;28;20199;-42
2024/01/04 04:33:07;;;;;;;2.00;0.93;;;6.60;1.00;;;;;;5119071;28;20266;-41
2024/01/04 04:35:33;;;;;;;2.00;0.87;;;6.60;1.00;;;;;;5118951;28;20259;-44
2024/01/04 04:37:58;;;;;;;1.20;0.60;;;6.60;1.00;;;;;;5118827;28;20175;-42
2024/01/04 04:40:24;;;;;;;1.50;0.70;;;6.60;1.00;;;;;;5118700;28;20604;-41
2024/01/04 04:42:49;;;;;;;3.60;1.10;;;6.60;1.00;;;;;;5119090;28;20552;-42
2024/01/04 04:45:15;;;;;;;2.47;1.00;;;6.60;1.00;;;;;;5118370;28;20179;-41
2024/01/04 04:47:40;;;;;;;1.70;0.77;;;6.60;1.00;;;;;;5118805;28;20240;-42
2024/01/04 04:50:06;;;;;;;4.27;1.43;;;6.60;1.00;;;;;;5117288;28;20191;-42
2024/01/04 04:52:32;;;;;;;2.37;0.67;;;6.60;1.00;;;;;;5119105;28;20191;-42
2024/01/04 04:54:57;;;;;;;3.40;0.60;;;6.50;1.00;;;;;;5118039;28;20464;-44
2024/01/04 04:57:23;;;;;;;5.10;0.93;;;6.50;1.00;;;;;;5116093;28;20175;-43
2024/01/04 04:59:48;;;;;;;2.57;0.70;;;6.50;1.00;;;;;;5114991;28;20230;-44
2024/01/04 05:02:14;;;;;;;3.37;0.90;;;6.40;1.00;;;;;;5114472;28;20543;-44
2024/01/04 05:04:39;;;;;;;1.30;0.70;;;6.40;1.00;;;;;;5113327;28;20596;-43
2024/01/04 05:07:05;;;;;;;2.50;0.80;;;6.50;1.00;;;;;;5115466;28;20167;-42
2024/01/04 05:09:30;;;;;;;2.50;0.70;;;6.50;1.00;;;;;;5114746;28;20213;-43
2024/01/04 05:11:56;;;;;;;2.30;0.60;;;6.50;1.00;;;;;;5116284;28;20221;-40
2024/01/04 05:14:22;;;;;;;6.83;1.20;;;6.50;1.00;;;;;;5115774;28;20215;-40
2024/01/04 05:16:47;;;;;;;3.80;1.10;;;6.50;1.00;;;;;;5116212;28;20248;-43
2024/01/04 05:19:13;;;;;;;2.83;0.90;;;6.60;1.00;;;;;;5116715;28;20614;-40
2024/01/04 05:21:39;;;;;;;4.00;0.60;;;6.60;1.00;;;;;;5115798;28;20724;-41
2024/01/04 05:24:05;;;;;;;2.00;0.77;;;6.70;1.00;;;;;;5115248;28;20176;-41
2024/01/04 05:26:31;;;;;;;3.77;0.83;;;6.70;99.90;;;;;;5116295;28;20424;-43
2024/01/04 05:28:57;;;;;;;2.50;0.80;;;6.70;99.90;;;;;;5115771;28;20176;-40
2024/01/04 05:31:22;;;;;;;2.03;0.60;;;6.70;99.90;;;;;;5117298;28;20425;-41
2024/01/04 05:33:48;;;;;;;1.53;0.40;;;6.70;99.90;;;;;;5118385;28;20180;-42
2024/01/04 05:36:14;;;;;;;3.50;0.87;;;6.70;99.90;;;;;;5117783;28;20441;-41
2024/01/04 05:38:39;;;;;;;5.00;1.07;;;6.70;99.90;;;;;;5114627;28;20531;-42
2024/01/04 05:41:05;;;;;;;1.40;0.60;;;6.70;99.90;;;;;;5116458;28;20172;-44
2024/01/04 05:43:33;;;;;;;2.13;0.70;;;6.60;99.90;;;;;;5115374;28;20581;-42
2024/01/04 05:46:02;;;;;;;1.67;0.50;;;6.60;99.90;;;;;;5117271;28;20167;-42
2024/01/04 05:48:27;;;;;;;3.80;0.73;;;6.60;99.90;;;;;;5116599;28;20681;-42
2024/01/04 05:50:53;;;;;;;1.03;0.53;;;6.50;1.00;;;;;;5117340;28;20612;-43
2024/01/04 05:53:18;;;;;;;0.90;0.50;;;6.50;1.00;;;;;;5117220;28;20180;-42
2024/01/04 05:55:44;;;;;;;1.60;0.90;;;6.60;1.00;;;;;;5118378;28;20600;-41
2024/01/04 05:58:10;;;;;;;1.77;0.77;;;6.60;1.00;;;;;;5118769;28;20175;-41
2024/01/04 06:00:35;;;;;;;4.37;1.00;;;6.50;99.90;;;;;;5117416;28;20574;-42
2024/01/04 06:03:01;;;;;;;2.00;0.83;;;6.60;99.90;;;;;;5116314;28;20420;-44
2024/01/04 06:05:27;;;;;;;2.90;0.90;;;6.60;99.90;;;;;;5117163;28;20194;-44
2024/01/04 06:07:52;;;;;;;1.30;0.70;;;6.60;99.90;;;;;;5115777;28;20423;-41
2024/01/04 06:10:18;;;;;;;4.00;1.00;;;6.60;99.90;;;;;;5114354;28;20253;-42
2024/01/04 06:12:43;;;;;;;2.00;0.77;;;6.60;99.90;;;;;;5113698;28;20273;-44
2024/01/04 06:15:10;;;;;;;2.50;0.80;;;6.60;99.90;;;;;;5113724;28;20222;-44
2024/01/04 06:17:36;;;;;;;2.17;1.00;;;6.70;99.90;;;;;;5114964;28;20575;-40
2024/01/04 06:20:02;;;;;;;3.20;0.93;;;6.60;99.90;;;;;;5117306;28;20425;-41
2024/01/04 06:22:28;;;;;;;5.10;1.10;;;6.60;99.90;;;;;;5116776;28;20187;-43
2024/01/04 06:24:53;;;;;;;4.37;1.60;;;6.60;99.90;;;;;;5115573;28;20722;-42
2024/01/04 06:27:19;;;;;;;1.60;0.63;;;6.60;99.90;;;;;;5115544;28;20209;-42
2024/01/04 06:29:44;;;;;;;5.53;0.80;;;6.60;99.90;;;;;;5115779;28;20607;-41
2024/01/04 06:32:10;;;;;;;5.10;1.00;;;6.60;99.90;;;;;;5116383;28;20258;-44
2024/01/04 06:34:35;;;;;;;3.43;0.90;;;6.60;99.90;;;;;;5117440;28;20246;-41
2024/01/04 06:37:01;;;;;;;3.40;1.10;;;6.50;99.90;;;;;;5117691;28;20202;-44
2024/01/04 06:39:28;;;;;;;4.03;1.00;;;6.50;99.90;;;;;;5116516;28;20219;-43
2024/01/04 06:41:54;;;;;;;3.63;1.00;;;6.60;99.90;;;;;;5116511;28;20172;-43
2024/01/04 06:44:19;;;;;;;4.00;1.50;;;6.60;99.90;;;;;;5116241;28;20743;-43
2024/01/04 06:46:45;;;;;;;4.60;1.20;;;6.60;99.90;;;;;;5114956;28;20441;-42
2024/01/04 06:49:10;;;;;;;1.63;0.87;;;6.60;99.90;;;;;;5114820;28;20554;-41
2024/01/04 06:51:36;;;;;;;4.80;1.10;;;6.60;99.90;;;;;;5114701;28;20545;-42
2024/01/04 06:54:02;;;;;;;5.37;1.20;;;6.60;99.90;;;;;;5114293;28;20302;-47
2024/01/04 06:56:28;;;;;;;5.37;1.33;;;6.50;99.90;;;;;;5116119;28;20473;-42
2024/01/04 06:58:54;;;;;;;2.63;0.90;;;6.50;99.90;;;;;;5116410;28;20658;-43
2024/01/04 07:01:19;;;;;;;4.03;1.23;;;6.50;99.90;;;;;;5116792;27;20228;-40
2024/01/04 07:03:46;;;;;;;7.83;1.00;;;6.40;99.90;;;;;;5116537;28;20494;-44
2024/01/04 07:06:12;;;;;;;3.23;0.90;;;6.40;99.90;;;;;;5116944;28;20515;-41
2024/01/04 07:08:37;;;;;;;2.67;1.27;;;6.40;99.90;;;;;;5117259;28;20520;-41
2024/01/04 07:11:06;;;;;;;4.70;1.53;;;6.30;1.00;;;;;;5117888;28;20184;-40
2024/01/04 07:13:34;;;;;;;5.03;1.30;;;6.30;1.00;;;;;;5116626;28;20190;-41
2024/01/04 07:16:04;;;;;;;2.13;0.80;;;6.20;1.00;;;;;;5117507;28;20444;-42
2024/01/04 07:18:29;;;;;;;2.77;1.33;;;6.20;1.00;;;;;;5115740;28;20466;-44
2024/01/04 07:20:55;;;;;;;1.77;0.90;;;6.20;1.00;;;;;;5115926;28;20421;-41
2024/01/04 07:23:20;;;;;;;5.27;2.07;;;6.20;1.00;;;;;;5117252;28;20175;-41
2024/01/04 07:25:46;;;;;;;4.83;1.33;;;6.20;1.00;;;;;;5115994;28;20195;-44
2024/01/04 07:28:11;;;;;;;3.47;0.97;;;6.20;1.00;;;;;;5114352;28;20504;-45
2024/01/04 07:30:37;;;;;;;5.90;1.47;;;6.20;1.00;;;;;;5111636;28;20237;-41
2024/01/04 07:33:03;;;;;;;2.67;1.10;;;6.20;1.00;;;;;;5113416;28;20216;-44
2024/01/04 07:35:29;;;;;;;1.90;0.83;;;6.10;1.00;;;;;;5112417;28;20211;-40
2024/01/04 07:37:54;;;;;;;1.60;0.83;;;6.10;1.00;;;;;;5113552;28;20457;-41
2024/01/04 07:40:20;;;;;;;1.50;0.70;;;6.00;1.00;;;;;;5113721;28;20207;-44
2024/01/04 07:42:45;;;;;;;2.43;1.00;;;6.10;1.00;;;;;;5113156;28;20478;-41
2024/01/04 07:45:11;;;;;;;4.70;1.20;;;6.10;1.00;;;;;;5116019;28;20234;-41
2024/01/04 07:47:36;;;;;;;3.43;1.27;;;6.10;1.00;;;;;;5115445;28;20180;-41
2024/01/04 07:50:04;;;;;;;1.77;0.97;;;6.10;1.00;;;;;;5114709;28;20249;-42
2024/01/04 07:52:29;;;;;;;3.60;1.30;;;6.10;1.00;;;;;;5114372;28;20182;-40
2024/01/04 07:54:55;;;;;;;3.90;1.07;;;6.10;1.00;;;;;;5115360;28;20857;-41
2024/01/04 07:57:20;;;;;;;5.30;1.07;;;6.20;1.00;;;;;;5114523;28;20240;-43
2024/01/04 07:59:46;;;;;;;1.87;1.00;;;6.20;1.00;;;;;;5115627;28;20243;-43
2024/01/04 08:02:11;;;;;;;2.20;0.97;;;6.30;1.00;;;;;;5113988;28;20302;-43
2024/01/04 08:04:37;;;;;;;7.53;1.70;;;6.40;99.90;;;;;;5115419;28;20271;-43
2024/01/04 08:07:02;;;;;;;3.00;1.60;;;6.50;99.90;;;;;;5117433;28;20598;-41
2024/01/04 08:09:28;;;;;;;2.77;1.13;;;6.60;99.90;;;;;;5119349;28;20226;-43
2024/01/04 08:11:53;;;;;;;3.60;1.17;;;6.90;59.10;;;;;;5118763;28;20213;-44
2024/01/04 08:14:19;;;;;;;7.70;1.60;;;7.20;1.00;;;;;;5118254;28;20211;-42
2024/01/04 08:16:44;;;;;;;4.13;1.27;;;7.40;99.90;;;;;;5119120;28;20356;-42
2024/01/04 08:19:10;;;;;;;5.00;1.87;;;7.60;99.90;;;;;;5118980;28;20180;-41
2024/01/04 08:21:36;;;;;;;5.03;1.20;;;7.90;1.00;;;;;;5100493;28;20503;-44
2024/01/04 08:24:03;;;;;;;3.87;1.33;;;7.90;1.00;;;;;;5117642;28;20664;-40
2024/01/04 08:26:28;;;;;;;6.13;1.53;;;8.20;99.90;;;;;;5116202;28;20536;-45
2024/01/04 08:28:54;;;;;;;4.17;1.03;;;8.30;99.90;;;;;;5117760;28;20543;-42
2024/01/04 08:31:19;;;;;;;4.20;1.10;;;8.50;1.00;;;;;;5119399;28;20203;-43
2024/01/04 08:33:45;;;;;;;4.47;1.30;;;8.70;1.00;;;;;;5119683;28;20644;-44
2024/01/04 08:36:10;;;;;;;2.73;1.10;;;8.60;1.00;;;;;;5100344;28;20241;-40
2024/01/04 08:38:36;;;;;;;6.77;1.10;;;8.80;99.90;;;;;;5118111;28;20264;-41
2024/01/04 08:41:02;;;;;;;1.53;0.83;;;8.60;1.00;;;;;;5118589;28;20646;-46
2024/01/04 08:43:28;;;;;;;5.80;1.30;;;8.50;1.00;;;;;;5118425;28;20184;-41
2024/01/04 08:45:53;;;;;;;3.33;1.00;;;8.50;21.00;;;;;;5120232;28;20183;-44
2024/01/04 08:48:19;;;;;;;3.33;0.80;;;8.50;12.30;;;;;;5116569;28;20354;-43
2024/01/04 08:50:44;;;;;;;2.00;1.17;;;8.60;56.90;;;;;;5117982;28;20259;-44
2024/01/04 08:53:12;;;;;;;2.10;0.90;;;8.70;1.00;;;;;;5118144;28;20184;-47
2024/01/04 08:55:38;;;;;;;4.90;1.10;;;8.80;1.00;;;;;;5117548;28;20251;-41
2024/01/04 08:58:04;;;;;;;3.50;1.43;;;8.50;99.90;;;;;;5117693;28;20718;-42
2024/01/04 09:00:30;;;;;;;4.07;1.07;;;8.10;99.90;;;;;;5118906;28;20249;-41
2024/01/04 09:02:56;;;;;;;2.10;1.50;;;7.80;1.00;;;;;;5118306;28;20180;-41
2024/01/04 09:05:21;;;;;;;2.80;0.93;;;7.60;1.00;;;;;;5115768;28;20645;-42
2024/01/04 09:07:47;;;;;;;2.27;1.30;;;7.40;66.20;;;;;;5118828;28;20199;-43
2024/01/04 09:10:13;;;;;;;3.03;1.20;;;7.30;99.90;;;;;;5118438;28;20207;-42
2024/01/04 09:12:39;;;;;;;5.83;1.60;;;7.20;99.90;;;;;;5120097;28;20206;-45
2024/01/04 09:15:07;;;;;;;4.57;1.30;;;7.20;99.90;;;;;;5118613;28;20582;-44
2024/01/04 09:17:33;;;;;;;2.40;0.83;;;7.40;17.40;;;;;;5116173;28;20751;-42
2024/01/04 09:19:59;;;;;;;2.23;1.13;;;7.70;99.90;;;;;;5117390;28;20958;-45
2024/01/04 09:22:24;;;;;;;3.13;0.80;;;8.30;1.00;;;;;;5117462;28;20418;-43
2024/01/04 09:24:50;;;;;;;2.43;0.80;;;9.20;1.00;;;;;;5117296;28;20541;-43
2024/01/04 09:27:16;;;;;;;2.40;1.17;;;10.30;1.00;;;;;;5097307;28;20180;-45
2024/01/04 09:29:42;;;;;;;2.60;0.93;;;10.60;99.90;;;;;;5097767;28;20463;-43
2024/01/04 09:32:07;;;;;;;2.00;0.80;;;11.30;1.00;;;;;;5114820;28;20203;-41
2024/01/04 09:34:33;;;;;;;1.63;0.70;;;11.80;99.90;;;;;;5113100;28;20230;-41
2024/01/04 09:37:00;;;;;;;1.27;0.50;;;12.50;99.90;;;;;;5105292;28;20543;-41
2024/01/04 09:39:26;;;;;;;2.63;1.07;;;13.00;31.50;;;;;;5098451;28;20168;-41
2024/01/04 09:41:53;;;;;;;1.50;0.83;;;13.50;1.00;;;;;;5105490;28;20436;-44
2024/01/04 09:44:18;;;;;;;4.90;1.40;;;12.90;1.00;;;;;;5105023;28;20248;-41
2024/01/04 09:46:45;;;;;;;4.50;1.10;;;11.50;66.40;;;;;;5108145;28;20486;-41
2024/01/04 09:49:13;;;;;;;4.07;1.47;;;11.50;99.90;;;;;;5115146;28;20479;-42
2024/01/04 09:51:41;;;;;;;3.80;1.20;;;12.10;99.90;;;;;;5117054;28;20480;-42
2024/01/04 09:54:09;;;;;;;1.97;1.00;;;11.70;1.00;;;;;;5115298;28;20468;-43
2024/01/04 09:56:47;;;;;;;3.33;1.10;;;11.30;1.00;;;;;;5117427;28;20429;-41
2024/01/04 09:59:13;;;;;;;4.23;1.20;;;10.60;1.00;;;;;;5116995;28;20497;-42
2024/01/04 10:01:39;;;;;;;3.40;1.07;;;9.80;99.90;;;;;;5116539;28;20429;-44
2024/01/04 10:04:13;;;;;;;5.33;3.90;;;9.30;99.90;;;;;;5115885;28;20439;-45
2024/01/04 10:06:43;;;;;;;2.47;1.30;;;8.90;99.90;;;;;;5117531;28;20935;-41
2024/01/04 10:09:28;;;;;;;3.10;1.17;;;9.10;99.90;;;;;;5101010;28;20456;-43
2024/01/04 10:11:57;;;;;;;7.73;1.67;;;9.30;99.90;;;;;;5118221;28;20429;-41
2024/01/04 10:14:23;;;;;;;5.27;1.73;;;8.90;99.90;;;;;;5118067;28;20473;-42
2024/01/04 10:16:49;;;;;;;4.80;1.73;;;8.80;1.00;;;;;;5118097;28;20453;-44
2024/01/04 10:19:15;;;;;;;2.60;1.40;;;9.00;99.90;;;;;;5116935;28;20421;-41
2024/01/04 10:21:41;;;;;;;2.20;1.60;;;8.70;1.00;;;;;;5117466;28;20435;-43
2024/01/04 10:24:07;;;;;;;3.10;1.10;;;8.60;99.90;;;;;;5117195;28;20459;-42
2024/01/04 10:26:33;;;;;;;2.30;1.23;;;8.50;99.90;;;;;;5114605;28;20192;-41
2024/01/04 10:28:59;;;;;;;6.00;1.20;;;8.50;99.90;;;;;;5115632;28;20454;-42
2024/01/04 10:31:28;;;;;;;2.27;1.00;;;8.50;99.90;;;;;;5116315;28;20171;-42
2024/01/04 10:34:00;;;;;;;6.47;1.23;;;8.30;1.00;;;;;;5115204;28;20437;-45
2024/01/04 10:36:29;;;;;;;4.20;1.20;;;8.20;99.90;;;;;;5114442;28;20444;-44
2024/01/04 10:38:59;;;;;;;1.67;0.90;;;8.10;1.00;;;;;;5114153;28;20719;-42
2024/01/04 10:41:28;;;;;;;3.93;1.20;;;8.00;1.00;;;;;;5114716;28;20437;-45
2024/01/04 10:44:05;;;;;;;2.30;1.30;;;8.00;1.00;;;;;;5116345;28;20520;-43
2024/01/04 10:46:34;;;;;;;4.27;1.27;;;8.00;1.00;;;;;;5113612;28;20512;-41
2024/01/04 10:49:03;;;;;;;2.30;1.23;;;8.00;99.40;;;;;;5114332;28;20438;-41
2024/01/04 10:51:32;;;;;;;2.97;1.00;;;8.10;99.90;;;;;;5114391;28;20413;-42
2024/01/04 10:54:01;;;;;;;3.17;1.10;;;8.10;1.00;;;;;;5114689;28;20768;-41
2024/01/04 10:56:32;;;;;;;5.20;1.20;;;8.10;99.90;;;;;;5113086;28;20738;-44
2024/01/04 10:58:59;;;;;;;3.10;1.07;;;8.10;1.00;;;;;;5111361;28;20433;-40
2024/01/04 11:01:25;;;;;;;12.13;2.40;;;8.10;1.00;;;;;;5111604;28;20477;-43
2024/01/04 11:03:54;;;;;;;3.70;1.30;;;8.10;1.00;;;;;;5112254;28;20425;-43
2024/01/04 11:06:21;;;;;;;3.33;1.10;;;8.10;1.00;;;;;;5115064;27;20421;-42
2024/01/04 11:08:47;;;;;;;4.97;1.63;;;8.20;29.10;;;;;;5111158;28;20469;-41
2024/01/04 11:11:13;;;;;;;4.50;1.20;;;8.30;1.00;;;;;;5112150;28;20417;-43
2024/01/04 11:13:41;;;;;;;3.00;1.00;;;8.50;99.90;;;;;;5114246;28;20436;-44
2024/01/04 11:16:26;;;;;;;3.30;1.17;;;8.40;99.90;;;;;;5114891;28;20417;-44
2024/01/04 11:18:56;;;;;;;3.63;0.97;;;8.40;99.90;;;;;;5115619;28;20835;-45
2024/01/04 11:21:43;;;;;;;6.03;1.40;;;8.40;1.00;;;;;;5115018;28;20415;-47
2024/01/04 11:24:25;;;;;;;5.50;1.30;;;8.30;1.00;;;;;;5095626;28;20854;-41
2024/01/04 11:26:56;;;;;;;3.20;1.73;;;8.30;99.90;;;;;;5112348;28;20838;-42
2024/01/04 11:29:23;;;;;;;4.13;1.03;;;8.30;1.00;;;;;;5113193;28;20487;-43
2024/01/04 11:31:49;;;;;;;5.00;1.53;;;8.20;99.90;;;;;;5113036;28;20441;-42
2024/01/04 11:34:15;;;;;;;5.13;1.67;;;8.30;1.00;;;;;;5114091;28;20475;-42
2024/01/04 11:36:41;;;;;;;2.77;0.97;;;8.30;99.90;;;;;;5115961;28;20445;-43
2024/01/04 11:39:07;;;;;;;2.73;1.00;;;8.60;99.90;;;;;;5115530;28;20401;-45
2024/01/04 11:41:37;;;;;;;5.13;1.37;;;10.00;1.00;;;;;;5115284;28;20444;-42
2024/01/04 11:44:12;;;;;;;4.17;0.93;;;11.50;1.00;;;;;;5116373;28;20574;-43
2024/01/04 11:46:41;;;;;;;4.23;1.00;;;12.50;62.70;;;;;;5115806;28;20424;-42
2024/01/04 11:49:09;;;;;;;3.10;1.10;;;13.30;1.00;;;;;;5116913;28;20432;-45
2024/01/04 11:51:41;;;;;;;2.73;0.80;;;13.60;1.00;;;;;;5112233;28;20832;-41
2024/01/04 11:54:09;;;;;;;2.87;1.13;;;14.00;1.00;;;;;;5095149;28;20806;-45
2024/01/04 11:56:35;;;;;;;3.10;1.20;;;13.80;1.00;;;;;;5112655;28;20742;-41
2024/01/04 11:59:11;;;;;;;3.23;1.20;;;13.00;1.00;;;;;;5112955;28;20459;-45
2024/01/04 12:01:41;;;;;;;3.63;1.10;;;12.80;1.00;;;;;;5112209;28;20183;-42
2024/01/04 12:04:16;;;;;;;4.30;1.40;;;12.00;1.00;;;;;;5111908;28;20429;-42
2024/01/04 12:06:44;;;;;;;6.13;1.40;;;11.60;1.00;;;;;;5113519;28;20420;-41
2024/01/04 12:09:10;;;;;;;2.07;1.27;;;11.50;1.00;;;;;;5098250;28;20424;-44
2024/01/04 12:11:38;;;;;;;3.63;1.63;;;10.90;1.00;;;;;;5114852;28;20422;-43
2024/01/04 12:14:05;;;;;;;4.20;1.00;;;10.60;99.60;;;;;;5096507;28;20524;-43
2024/01/04 12:16:31;;;;;;;2.87;1.30;;;10.30;99.90;;;;;;5115977;28;20873;-44
2024/01/04 12:18:58;;;;;;;4.23;1.13;;;9.80;1.00;;;;;;5112751;28;20770;-44
2024/01/04 12:21:25;;;;;;;2.23;1.20;;;9.50;3.60;;;;;;5113197;28;20451;-42
2024/01/04 12:23:52;;;;;;;2.07;1.00;;;9.00;1.00;;;;;;5113729;28;20425;-45
2024/01/04 12:26:26;;;;;;;5.90;1.10;;;8.80;99.90;;;;;;5115186;28;20414;-44
2024/01/04 12:28:52;;;;;;;3.00;0.93;;;9.30;1.00;;;;;;5112854;28;20425;-44
2024/01/04 12:31:21;;;;;;;2.47;1.00;;;10.30;1.00;;;;;;5111700;28;20464;-40
2024/01/04 12:33:50;;;;;;;2.00;0.80;;;11.40;1.00;;;;;;5112857;28;20523;-44
2024/01/04 12:36:21;;;;;;;2.23;0.90;;;12.00;99.90;;;;;;5112334;28;20493;-43
2024/01/04 12:38:47;;;;;;;2.30;0.90;;;11.30;99.90;;;;;;5111815;28;20410;-43
2024/01/04 12:41:24;;;;;;;5.07;0.97;;;10.40;1.00;;;;;;5114076;28;20443;-45
2024/01/04 12:43:50;;;;;;;2.10;0.80;;;9.90;1.00;;;;;;5115017;28;20523;-43
2024/01/04 12:46:19;;;;;;;1.70;0.70;;;9.40;99.90;;;;;;5111586;28;20578;-47
2024/01/04 12:48:45;;;;;;;2.93;0.90;;;8.90;99.90;;;;;;5112152;28;20461;-43
2024/01/04 12:51:16;;;;;;;3.73;0.90;;;9.10;99.90;;;;;;5112040;28;20410;-47
2024/01/04 12:53:45;;;;;;;2.47;0.90;;;9.10;1.00;;;;;;5111166;28;20218;-45
2024/01/04 12:56:15;;;;;;;1.73;1.00;;;10.00;1.00;;;;;;5101912;28;20499;-46
2024/01/04 12:58:44;;;;;;;2.50;0.70;;;11.50;1.00;;;;;;5098310;28;20611;-45